SWA1149 KLGB-KLAS
Flight info
| Callsign | SWA1149 |
|---|---|
| Flight time | 0h 42m |
| Altitude | 29000 |
| Route | ZOOMM3 MISEN RNDRZ4 |
| Aircraft | B737/M-SADE2E3GIJ4RWZ/LB1D1 |
Departure
| Time | 2026-05-08 01:10 |
|---|---|
| Airport | Long Beach International Airport (KLGB) |
Arrival
| Time | 2026-05-08 01:52 |
|---|---|
| Airport | Harry Reid International Airport (KLAS) |
| Time | Latitude | Longitude | Altitude | Speed | Heading |
|---|---|---|---|---|---|
| 2026-05-08 00:38 | 33.81898 | -118.14607 | 42 ft | 0 kts | 90° |
| 2026-05-08 01:01 | 33.81898 | -118.14611 | 42 ft | 2 kts | 90° |
| 2026-05-08 01:01 | 33.81898 | -118.14629 | 42 ft | 2 kts | 90° |
| 2026-05-08 01:01 | 33.81898 | -118.14648 | 42 ft | 2 kts | 90° |
| 2026-05-08 01:02 | 33.81898 | -118.14666 | 43 ft | 2 kts | 90° |
| 2026-05-08 01:02 | 33.81898 | -118.14684 | 43 ft | 1 kts | 104° |
| 2026-05-08 01:02 | 33.81907 | -118.14698 | 43 ft | 2 kts | 153° |
| 2026-05-08 01:02 | 33.81918 | -118.14701 | 43 ft | 1 kts | 187° |
| 2026-05-08 01:03 | 33.81920 | -118.14700 | 43 ft | 0 kts | 187° |
| 2026-05-08 01:05 | 33.81914 | -118.14701 | 43 ft | 2 kts | 184° |
| 2026-05-08 01:05 | 33.81886 | -118.14701 | 43 ft | 5 kts | 180° |
| 2026-05-08 01:05 | 33.81836 | -118.14701 | 43 ft | 8 kts | 179° |
| 2026-05-08 01:06 | 33.81734 | -118.14701 | 43 ft | 20 kts | 180° |
| 2026-05-08 01:06 | 33.81605 | -118.14700 | 41 ft | 14 kts | 180° |
| 2026-05-08 01:06 | 33.81525 | -118.14643 | 40 ft | 15 kts | 135° |
| 2026-05-08 01:06 | 33.81426 | -118.14526 | 38 ft | 23 kts | 135° |
| 2026-05-08 01:07 | 33.81312 | -118.14387 | 36 ft | 23 kts | 135° |
| 2026-05-08 01:07 | 33.81195 | -118.14247 | 34 ft | 23 kts | 135° |
| 2026-05-08 01:07 | 33.81079 | -118.14107 | 33 ft | 23 kts | 135° |
| 2026-05-08 01:07 | 33.80963 | -118.13967 | 33 ft | 23 kts | 135° |
| 2026-05-08 01:08 | 33.80862 | -118.13847 | 32 ft | 17 kts | 134° |
| 2026-05-08 01:08 | 33.80786 | -118.13758 | 31 ft | 9 kts | 154° |
| 2026-05-08 01:08 | 33.80731 | -118.13785 | 32 ft | 8 kts | 228° |
| 2026-05-08 01:08 | 33.80706 | -118.13834 | 33 ft | 5 kts | 279° |
| 2026-05-08 01:09 | 33.80732 | -118.13872 | 33 ft | 8 kts | 314° |
| 2026-05-08 01:09 | 33.80917 | -118.14098 | 33 ft | 73 kts | 314° |
| 2026-05-08 01:09 | 33.81445 | -118.14735 | 41 ft | 136 kts | 314° |
| 2026-05-08 01:09 | 33.82207 | -118.15650 | 303 ft | 164 kts | 314° |
| 2026-05-08 01:10 | 33.83017 | -118.16608 | 1013 ft | 165 kts | 313° |
| 2026-05-08 01:10 | 33.83801 | -118.17557 | 1728 ft | 162 kts | 311° |
| 2026-05-08 01:10 | 33.84318 | -118.18771 | 2185 ft | 174 kts | 276° |
| 2026-05-08 01:10 | 33.84033 | -118.20212 | 2663 ft | 190 kts | 238° |
| 2026-05-08 01:11 | 33.82962 | -118.21240 | 2996 ft | 217 kts | 204° |
| 2026-05-08 01:11 | 33.81345 | -118.21718 | 3029 ft | 253 kts | 192° |
| 2026-05-08 01:11 | 33.79528 | -118.22070 | 3479 ft | 271 kts | 191° |
| 2026-05-08 01:11 | 33.77674 | -118.22415 | 4291 ft | 273 kts | 191° |
| 2026-05-08 01:12 | 33.75795 | -118.22739 | 5074 ft | 277 kts | 186° |
| 2026-05-08 01:12 | 33.73877 | -118.22350 | 5844 ft | 284 kts | 155° |
| 2026-05-08 01:12 | 33.72364 | -118.20863 | 6617 ft | 289 kts | 126° |
| 2026-05-08 01:12 | 33.71520 | -118.18722 | 7428 ft | 289 kts | 102° |
| 2026-05-08 01:13 | 33.71289 | -118.16325 | 8277 ft | 288 kts | 86° |
| 2026-05-08 01:13 | 33.71705 | -118.14053 | 9104 ft | 284 kts | 62° |
| 2026-05-08 01:13 | 33.72948 | -118.12222 | 9965 ft | 282 kts | 41° |
| 2026-05-08 01:13 | 33.74476 | -118.10705 | 10585 ft | 293 kts | 38° |
| 2026-05-08 01:14 | 33.76105 | -118.09157 | 11118 ft | 307 kts | 38° |
| 2026-05-08 01:14 | 33.77810 | -118.07503 | 11590 ft | 323 kts | 39° |
| 2026-05-08 01:14 | 33.79573 | -118.05745 | 12088 ft | 338 kts | 40° |
| 2026-05-08 01:14 | 33.81419 | -118.03879 | 12536 ft | 353 kts | 40° |
| 2026-05-08 01:15 | 33.83315 | -118.01952 | 13110 ft | 363 kts | 40° |
| 2026-05-08 01:15 | 33.85257 | -117.99977 | 13922 ft | 366 kts | 40° |
| 2026-05-08 01:15 | 33.87212 | -117.97987 | 14712 ft | 370 kts | 40° |
| 2026-05-08 01:15 | 33.89182 | -117.95982 | 15473 ft | 375 kts | 40° |
| 2026-05-08 01:16 | 33.91168 | -117.93970 | 16324 ft | 377 kts | 39° |
| 2026-05-08 01:16 | 33.93230 | -117.91993 | 17059 ft | 382 kts | 37° |
| 2026-05-08 01:16 | 33.95379 | -117.90034 | 17849 ft | 386 kts | 37° |
| 2026-05-08 01:16 | 33.97521 | -117.88115 | 18607 ft | 389 kts | 36° |
| 2026-05-08 01:17 | 33.99695 | -117.86169 | 19313 ft | 393 kts | 36° |
| 2026-05-08 01:17 | 34.01897 | -117.84184 | 20029 ft | 397 kts | 37° |
| 2026-05-08 01:17 | 34.04128 | -117.82159 | 20728 ft | 401 kts | 37° |
| 2026-05-08 01:17 | 34.06361 | -117.80096 | 21417 ft | 405 kts | 38° |
| 2026-05-08 01:18 | 34.08491 | -117.77871 | 22068 ft | 409 kts | 43° |
| 2026-05-08 01:18 | 34.10501 | -117.75397 | 22754 ft | 412 kts | 46° |
| 2026-05-08 01:18 | 34.12385 | -117.72807 | 23325 ft | 418 kts | 49° |
| 2026-05-08 01:18 | 34.14241 | -117.70106 | 24016 ft | 420 kts | 50° |
| 2026-05-08 01:19 | 34.16098 | -117.67337 | 24633 ft | 424 kts | 50° |
| 2026-05-08 01:19 | 34.17955 | -117.64551 | 25191 ft | 429 kts | 50° |
| 2026-05-08 01:19 | 34.19810 | -117.61764 | 25789 ft | 432 kts | 50° |
| 2026-05-08 01:19 | 34.21694 | -117.58938 | 26343 ft | 436 kts | 50° |
| 2026-05-08 01:20 | 34.23621 | -117.56051 | 26933 ft | 439 kts | 50° |
| 2026-05-08 01:20 | 34.25521 | -117.53209 | 27468 ft | 442 kts | 50° |
| 2026-05-08 01:20 | 34.27473 | -117.50291 | 28003 ft | 445 kts | 49° |
| 2026-05-08 01:20 | 34.29407 | -117.47400 | 28675 ft | 445 kts | 49° |
| 2026-05-08 01:21 | 34.31375 | -117.44460 | 29031 ft | 447 kts | 49° |
| 2026-05-08 01:21 | 34.35251 | -117.38660 | 29093 ft | 440 kts | 49° |
| 2026-05-08 01:22 | 34.39120 | -117.32863 | 29101 ft | 440 kts | 50° |
| 2026-05-08 01:22 | 34.42998 | -117.27047 | 29099 ft | 439 kts | 50° |
| 2026-05-08 01:23 | 34.46849 | -117.21265 | 29086 ft | 440 kts | 50° |
| 2026-05-08 01:23 | 34.50700 | -117.15469 | 29073 ft | 439 kts | 50° |
| 2026-05-08 01:24 | 34.54525 | -117.09705 | 29075 ft | 440 kts | 50° |
| 2026-05-08 01:24 | 34.58394 | -117.04003 | 29069 ft | 438 kts | 49° |
| 2026-05-08 01:25 | 34.62323 | -116.98307 | 29072 ft | 439 kts | 49° |
| 2026-05-08 01:25 | 34.66228 | -116.92640 | 29080 ft | 438 kts | 49° |
| 2026-05-08 01:26 | 34.70152 | -116.86924 | 29070 ft | 439 kts | 49° |
| 2026-05-08 01:26 | 34.74056 | -116.81216 | 29081 ft | 439 kts | 49° |
| 2026-05-08 01:27 | 34.77937 | -116.75528 | 29080 ft | 437 kts | 49° |
| 2026-05-08 01:27 | 34.81847 | -116.69785 | 29054 ft | 439 kts | 49° |
| 2026-05-08 01:28 | 34.85864 | -116.64246 | 29026 ft | 437 kts | 43° |
| 2026-05-08 01:28 | 34.90461 | -116.59371 | 28989 ft | 436 kts | 38° |
| 2026-05-08 01:29 | 34.95245 | -116.54800 | 28984 ft | 437 kts | 37° |
| 2026-05-08 01:29 | 35.00017 | -116.50272 | 28972 ft | 436 kts | 37° |
| 2026-05-08 01:30 | 35.04816 | -116.45670 | 28970 ft | 436 kts | 37° |
| 2026-05-08 01:30 | 35.09571 | -116.41038 | 28962 ft | 437 kts | 39° |
| 2026-05-08 01:31 | 35.13999 | -116.35874 | 28966 ft | 437 kts | 45° |
| 2026-05-08 01:31 | 35.18153 | -116.30456 | 28761 ft | 431 kts | 46° |
| 2026-05-08 01:31 | 35.20176 | -116.27776 | 28289 ft | 426 kts | 46° |
| 2026-05-08 01:32 | 35.22197 | -116.25101 | 27640 ft | 427 kts | 46° |
| 2026-05-08 01:32 | 35.24211 | -116.22418 | 26835 ft | 427 kts | 46° |
| 2026-05-08 01:32 | 35.26174 | -116.19738 | 25944 ft | 429 kts | 47° |
| 2026-05-08 01:32 | 35.28165 | -116.16985 | 25122 ft | 428 kts | 47° |
| 2026-05-08 01:33 | 35.30102 | -116.14295 | 24540 ft | 422 kts | 47° |
| 2026-05-08 01:33 | 35.32047 | -116.11594 | 23871 ft | 417 kts | 47° |
| 2026-05-08 01:33 | 35.33952 | -116.08953 | 23195 ft | 413 kts | 47° |
| 2026-05-08 01:33 | 35.35827 | -116.06357 | 22542 ft | 409 kts | 47° |
| 2026-05-08 01:34 | 35.37722 | -116.03739 | 21880 ft | 405 kts | 47° |
| 2026-05-08 01:34 | 35.39574 | -116.01182 | 21223 ft | 406 kts | 47° |
| 2026-05-08 01:34 | 35.41445 | -115.98601 | 20558 ft | 406 kts | 47° |
| 2026-05-08 01:34 | 35.43310 | -115.96028 | 19890 ft | 402 kts | 47° |
| 2026-05-08 01:35 | 35.45155 | -115.93483 | 19228 ft | 398 kts | 46° |
| 2026-05-08 01:35 | 35.46986 | -115.90953 | 18567 ft | 395 kts | 46° |
| 2026-05-08 01:35 | 35.48786 | -115.88463 | 17912 ft | 391 kts | 46° |
| 2026-05-08 01:35 | 35.50599 | -115.85953 | 17265 ft | 387 kts | 46° |
| 2026-05-08 01:36 | 35.52367 | -115.83504 | 16849 ft | 377 kts | 46° |
| 2026-05-08 01:36 | 35.54073 | -115.81137 | 16638 ft | 363 kts | 46° |
| 2026-05-08 01:36 | 35.55695 | -115.78885 | 16502 ft | 347 kts | 46° |
| 2026-05-08 01:36 | 35.57259 | -115.76711 | 16350 ft | 334 kts | 46° |
| 2026-05-08 01:37 | 35.58789 | -115.74586 | 16119 ft | 324 kts | 46° |
| 2026-05-08 01:37 | 35.60252 | -115.72574 | 16035 ft | 310 kts | 45° |
| 2026-05-08 01:37 | 35.61691 | -115.70629 | 16039 ft | 302 kts | 45° |
| 2026-05-08 01:37 | 35.63103 | -115.68736 | 16042 ft | 305 kts | 45° |
| 2026-05-08 01:38 | 35.64546 | -115.66802 | 16051 ft | 304 kts | 45° |
| 2026-05-08 01:38 | 35.65971 | -115.64883 | 16121 ft | 305 kts | 45° |
| 2026-05-08 01:38 | 35.67415 | -115.62934 | 16138 ft | 306 kts | 45° |
| 2026-05-08 01:38 | 35.68841 | -115.61003 | 16150 ft | 305 kts | 45° |
| 2026-05-08 01:39 | 35.70269 | -115.59068 | 16155 ft | 305 kts | 45° |
| 2026-05-08 01:39 | 35.71720 | -115.57143 | 16160 ft | 306 kts | 43° |
| 2026-05-08 01:39 | 35.73277 | -115.55379 | 16166 ft | 303 kts | 36° |
| 2026-05-08 01:39 | 35.75023 | -115.53909 | 16175 ft | 302 kts | 29° |
| 2026-05-08 01:40 | 35.76845 | -115.52631 | 16176 ft | 303 kts | 27° |
| 2026-05-08 01:40 | 35.78706 | -115.51389 | 16175 ft | 302 kts | 27° |
| 2026-05-08 01:40 | 35.80548 | -115.50150 | 16184 ft | 303 kts | 27° |
| 2026-05-08 01:40 | 35.82393 | -115.48884 | 16121 ft | 301 kts | 27° |
| 2026-05-08 01:41 | 35.84215 | -115.47614 | 15801 ft | 297 kts | 27° |
| 2026-05-08 01:41 | 35.86015 | -115.46352 | 15404 ft | 295 kts | 28° |
| 2026-05-08 01:41 | 35.87778 | -115.45110 | 15000 ft | 293 kts | 28° |
| 2026-05-08 01:41 | 35.89386 | -115.43505 | 14405 ft | 303 kts | 49° |
| 2026-05-08 01:42 | 35.90394 | -115.41223 | 13953 ft | 306 kts | 64° |
| 2026-05-08 01:42 | 35.91129 | -115.38788 | 13515 ft | 307 kts | 67° |
| 2026-05-08 01:42 | 35.91852 | -115.36305 | 13117 ft | 304 kts | 65° |
| 2026-05-08 01:42 | 35.92601 | -115.33885 | 12701 ft | 303 kts | 65° |
| 2026-05-08 01:43 | 35.93396 | -115.31457 | 12252 ft | 303 kts | 65° |
| 2026-05-08 01:43 | 35.94204 | -115.29061 | 11792 ft | 303 kts | 64° |
| 2026-05-08 01:43 | 35.95013 | -115.26686 | 11381 ft | 302 kts | 64° |
| 2026-05-08 01:43 | 35.95831 | -115.24287 | 10949 ft | 302 kts | 65° |
| 2026-05-08 01:44 | 35.96638 | -115.21912 | 10534 ft | 302 kts | 65° |
| 2026-05-08 01:44 | 35.97435 | -115.19563 | 10342 ft | 293 kts | 65° |
| 2026-05-08 01:44 | 35.98212 | -115.17269 | 10057 ft | 289 kts | 65° |
| 2026-05-08 01:44 | 35.98990 | -115.14969 | 9833 ft | 282 kts | 65° |
| 2026-05-08 01:45 | 35.99726 | -115.12791 | 9743 ft | 271 kts | 66° |
| 2026-05-08 01:45 | 36.00323 | -115.10597 | 9646 ft | 262 kts | 77° |
| 2026-05-08 01:45 | 36.00442 | -115.08401 | 9477 ft | 258 kts | 92° |
| 2026-05-08 01:45 | 36.00281 | -115.06181 | 9184 ft | 258 kts | 96° |
| 2026-05-08 01:46 | 36.00096 | -115.03985 | 8862 ft | 260 kts | 95° |
| 2026-05-08 01:46 | 35.99942 | -115.01726 | 8353 ft | 269 kts | 94° |
| 2026-05-08 01:46 | 35.99838 | -114.99409 | 7830 ft | 278 kts | 91° |
| 2026-05-08 01:46 | 35.99828 | -114.97008 | 7355 ft | 282 kts | 89° |
| 2026-05-08 01:47 | 35.99889 | -114.94591 | 7064 ft | 278 kts | 83° |
| 2026-05-08 01:47 | 36.00393 | -114.92310 | 6703 ft | 277 kts | 62° |
| 2026-05-08 01:47 | 36.01614 | -114.90489 | 6397 ft | 273 kts | 36° |
| 2026-05-08 01:48 | 36.05107 | -114.88977 | 5840 ft | 269 kts | 358° |
| 2026-05-08 01:48 | 36.06880 | -114.89531 | 5574 ft | 258 kts | 332° |
| 2026-05-08 01:48 | 36.08177 | -114.90942 | 5306 ft | 247 kts | 303° |
| 2026-05-08 01:48 | 36.08691 | -114.92886 | 5127 ft | 233 kts | 271° |
| 2026-05-08 01:49 | 36.08349 | -114.94810 | 4766 ft | 231 kts | 244° |
| 2026-05-08 01:49 | 36.07646 | -114.96580 | 4469 ft | 227 kts | 250° |
| 2026-05-08 01:49 | 36.07409 | -114.98482 | 4185 ft | 224 kts | 268° |
| 2026-05-08 01:49 | 36.07388 | -115.00375 | 3904 ft | 212 kts | 269° |
| 2026-05-08 01:50 | 36.07371 | -115.02126 | 3656 ft | 196 kts | 269° |
| 2026-05-08 01:50 | 36.07365 | -115.03751 | 3402 ft | 184 kts | 270° |
| 2026-05-08 01:50 | 36.07364 | -115.05279 | 3181 ft | 173 kts | 269° |
| 2026-05-08 01:50 | 36.07362 | -115.06718 | 2985 ft | 160 kts | 269° |
| 2026-05-08 01:51 | 36.07362 | -115.08051 | 2765 ft | 151 kts | 269° |
| 2026-05-08 01:51 | 36.07362 | -115.09332 | 2595 ft | 149 kts | 269° |
| 2026-05-08 01:51 | 36.07363 | -115.10615 | 2393 ft | 148 kts | 269° |
| 2026-05-08 01:51 | 36.07366 | -115.11878 | 2222 ft | 144 kts | 269° |
| 2026-05-08 01:52 | 36.07365 | -115.13091 | 2084 ft | 139 kts | 268° |
| 2026-05-08 01:52 | 36.07365 | -115.14163 | 2110 ft | 97 kts | 270° |
| 2026-05-08 01:52 | 36.07365 | -115.14669 | 2125 ft | 26 kts | 271° |
| 2026-05-08 01:52 | 36.07396 | -115.14873 | 2132 ft | 22 kts | 288° |
| 2026-05-08 01:53 | 36.07459 | -115.15028 | 2136 ft | 18 kts | 302° |
| 2026-05-08 01:53 | 36.07531 | -115.15131 | 2138 ft | 13 kts | 327° |
| 2026-05-08 01:53 | 36.07664 | -115.15210 | 2139 ft | 25 kts | 335° |
| 2026-05-08 01:53 | 36.07774 | -115.15264 | 2139 ft | 12 kts | 8° |
| 2026-05-08 01:54 | 36.07804 | -115.15153 | 2134 ft | 20 kts | 90° |
| 2026-05-08 01:54 | 36.07795 | -115.14940 | 2126 ft | 19 kts | 94° |
| 2026-05-08 01:54 | 36.07815 | -115.14822 | 2122 ft | 14 kts | 37° |
| 2026-05-08 01:54 | 36.07898 | -115.14741 | 2119 ft | 16 kts | 1° |
| 2026-05-08 01:55 | 36.08003 | -115.14793 | 2117 ft | 16 kts | 334° |
| 2026-05-08 01:55 | 36.08089 | -115.14840 | 2117 ft | 8 kts | 342° |
| 2026-05-08 01:55 | 36.08131 | -115.14805 | 2115 ft | 7 kts | 68° |
| 2026-05-08 01:55 | 36.08138 | -115.14786 | 2114 ft | 0 kts | 65° |